createdAt,value
2018-02-01T00:00:23.012Z,1.25
2018-02-01T00:01:32.466Z,1.18
2018-02-01T00:02:42.194Z,1.22
2018-02-01T00:03:52.181Z,1.13
2018-02-01T00:05:02.161Z,1.13
2018-02-01T00:06:12.164Z,1.22
2018-02-01T00:07:22.150Z,1.28
2018-02-01T00:08:32.136Z,1.13
2018-02-01T00:09:42.129Z,1.21
2018-02-01T00:10:52.122Z,1.18
2018-02-01T00:12:02.110Z,1.18
2018-02-01T00:13:12.095Z,1.22
2018-02-01T00:14:22.082Z,1.21
2018-02-01T00:15:31.800Z,1.18
2018-02-01T00:16:41.780Z,1.14
2018-02-01T00:17:51.802Z,1.21
2018-02-01T00:19:01.837Z,1.12
2018-02-01T00:20:11.033Z,1.2
2018-02-01T00:21:20.750Z,1.21
2018-02-01T00:22:30.730Z,1.2
2018-02-01T00:23:40.449Z,1.21
2018-02-01T00:24:50.166Z,1.14
2018-02-01T00:25:59.613Z,1.09
2018-02-01T00:27:09.332Z,1.12
2018-02-01T00:28:19.051Z,1.21
2018-02-01T00:29:28.773Z,1.18
2018-02-01T00:30:38.228Z,1.13
2018-02-01T00:31:47.734Z,1.16
2018-02-01T00:32:57.712Z,1.21
2018-02-01T00:34:07.504Z,1.04
2018-02-01T00:35:17.484Z,1.14
2018-02-01T00:36:27.467Z,1.06
2018-02-01T00:37:37.241Z,1.16
2018-02-01T00:38:47.220Z,1.16
2018-02-01T00:39:56.934Z,1.18
2018-02-01T00:41:06.387Z,1.16
2018-02-01T00:42:15.361Z,1.21
2018-02-01T00:43:25.356Z,1.1
2018-02-01T00:44:35.339Z,1.18
2018-02-01T00:45:45.324Z,1.13
2018-02-01T00:46:55.302Z,1.18
2018-02-01T00:48:05.287Z,1.24
2018-02-01T00:49:15.107Z,1.24
2018-02-01T00:50:25.087Z,1.2
2018-02-01T00:51:35.074Z,1.14
2018-02-01T00:52:44.526Z,1.24
2018-02-01T00:53:54.515Z,1.24
2018-02-01T00:55:04.552Z,1.24
2018-02-01T00:56:14.263Z,1.13
2018-02-01T00:57:24.255Z,1.2
2018-02-01T00:58:34.238Z,1.21
2018-02-01T00:59:43.955Z,1.18
2018-02-01T01:00:53.420Z,1.16
2018-02-01T01:02:03.408Z,1.24
2018-02-01T01:03:13.458Z,1.22
2018-02-01T01:04:23.445Z,1.18
2018-02-01T01:05:32.636Z,1.22
2018-02-01T01:06:42.722Z,1.18
2018-02-01T01:07:52.705Z,1.22
2018-02-01T01:09:02.683Z,1.21
2018-02-01T01:10:12.400Z,1.21
2018-02-01T01:11:21.855Z,1.3
2018-02-01T01:12:31.835Z,1.21
2018-02-01T01:13:41.546Z,1.22
2018-02-01T01:14:51.524Z,1.25
2018-02-01T01:16:01.506Z,1.21
2018-02-01T01:17:10.956Z,1.2
2018-02-01T01:18:20.938Z,1.18
2018-02-01T01:19:30.402Z,1.21
2018-02-01T01:20:40.113Z,1.21
2018-02-01T01:21:49.831Z,1.24
2018-02-01T01:22:59.815Z,1.21
2018-02-01T01:24:09.792Z,1.22
2018-02-01T01:25:18.982Z,1.27
2018-02-01T01:26:28.435Z,1.21
2018-02-01T01:27:38.421Z,1.24
2018-02-01T01:28:48.138Z,1.25
2018-02-01T01:29:57.902Z,1.21
2018-02-01T01:31:07.352Z,1.18
2018-02-01T01:32:17.335Z,1.18
2018-02-01T01:33:27.316Z,1.21
2018-02-01T01:34:37.032Z,1.22
2018-02-01T01:35:47.016Z,1.18
2018-02-01T01:36:56.996Z,1.28
2018-02-01T01:38:06.713Z,1.24
2018-02-01T01:39:16.694Z,1.21
2018-02-01T01:40:26.409Z,1.25
2018-02-01T01:41:36.388Z,1.27
2018-02-01T01:42:46.105Z,1.22
2018-02-01T01:43:56.103Z,1.3
2018-02-01T01:45:06.100Z,1.24
2018-02-01T01:46:15.816Z,1.24
2018-02-01T01:47:25.795Z,1.3
2018-02-01T01:48:35.789Z,1.25
2018-02-01T01:49:45.508Z,1.25
2018-02-01T01:50:55.494Z,1.24
2018-02-01T01:52:05.479Z,1.28
2018-02-01T01:53:15.203Z,1.25
2018-02-01T01:54:24.659Z,1.24
2018-02-01T01:55:34.370Z,1.31
2018-02-01T01:56:44.351Z,1.22
2018-02-01T01:57:54.064Z,1.32
2018-02-01T01:59:04.048Z,1.36
2018-02-01T02:00:14.073Z,1.39
2018-02-01T02:01:24.066Z,1.39
2018-02-01T02:02:33.517Z,1.32
2018-02-01T02:03:42.971Z,1.39
2018-02-01T02:04:52.949Z,1.38
2018-02-01T02:06:02.931Z,1.34
2018-02-01T02:07:12.385Z,1.34
2018-02-01T02:08:22.100Z,1.42
2018-02-01T02:09:31.819Z,1.43
2018-02-01T02:10:41.536Z,1.42
2018-02-01T02:11:51.516Z,1.49
2018-02-01T02:13:01.503Z,1.45
2018-02-01T02:14:11.224Z,1.43
2018-02-01T02:15:21.203Z,1.49
2018-02-01T02:16:30.920Z,1.5
2018-02-01T02:17:40.633Z,1.45
2018-02-01T02:18:50.351Z,1.48
2018-02-01T02:20:00.340Z,1.53
2018-02-01T02:21:09.525Z,1.6
2018-02-01T02:22:19.504Z,1.56
2018-02-01T02:23:29.493Z,1.57
2018-02-01T02:24:39.471Z,1.58
2018-02-01T02:25:49.187Z,1.52
2018-02-01T02:26:59.177Z,1.67
2018-02-01T02:28:08.417Z,1.63
2018-02-01T02:29:17.872Z,1.6
2018-02-01T02:30:27.866Z,1.6
2018-02-01T02:31:37.858Z,1.74
2018-02-01T02:32:47.311Z,1.57
2018-02-01T02:33:57.089Z,1.67
2018-02-01T02:35:07.074Z,1.6
2018-02-01T02:36:17.056Z,1.64
2018-02-01T02:37:26.782Z,1.6
2018-02-01T02:38:36.781Z,1.64
2018-02-01T02:39:46.927Z,1.6
2018-02-01T02:40:56.915Z,1.58
2018-02-01T02:42:06.636Z,1.6
2018-02-01T02:43:16.367Z,1.58
2018-02-01T02:44:26.094Z,1.64
2018-02-01T02:45:35.816Z,1.53
2018-02-01T02:46:45.537Z,1.58
2018-02-01T02:47:55.258Z,1.57
2018-02-01T02:49:05.251Z,1.6
2018-02-01T02:50:15.236Z,1.57
2018-02-01T02:51:25.229Z,1.56
2018-02-01T02:52:35.218Z,1.58
2018-02-01T02:53:45.207Z,1.58
2018-02-01T02:54:55.194Z,1.56
2018-02-01T02:56:05.180Z,1.56
2018-02-01T02:57:15.159Z,1.58
2018-02-01T02:58:25.149Z,1.6
2018-02-01T02:59:34.871Z,1.58
2018-02-01T03:00:44.599Z,1.57
2018-02-01T03:01:54.325Z,1.57
2018-02-01T03:03:04.309Z,1.63
2018-02-01T03:04:14.294Z,1.74
2018-02-01T03:05:23.746Z,1.7
2018-02-01T03:06:33.466Z,1.67
2018-02-01T03:07:43.183Z,1.67
2018-02-01T03:08:53.168Z,1.68
2018-02-01T03:10:02.358Z,1.64
2018-02-01T03:11:12.084Z,1.63
2018-02-01T03:12:22.072Z,1.66
2018-02-01T03:13:31.262Z,1.71
2018-02-01T03:14:40.991Z,1.67
2018-02-01T03:15:50.712Z,1.7
2018-02-01T03:17:00.694Z,1.7
2018-02-01T03:18:10.410Z,1.76
2018-02-01T03:19:20.386Z,1.75
2018-02-01T03:20:30.153Z,1.74
2018-02-01T03:21:39.604Z,1.7
2018-02-01T03:22:49.322Z,1.74
2018-02-01T03:23:59.307Z,1.82
2018-02-01T03:25:09.300Z,1.71
2018-02-01T03:26:19.279Z,1.6
2018-02-01T03:27:29.263Z,1.64
2018-02-01T03:28:38.714Z,1.6
2018-02-01T03:29:47.913Z,1.64
2018-02-01T03:30:57.368Z,1.74
2018-02-01T03:32:07.422Z,1.64
2018-02-01T03:33:17.415Z,1.6
2018-02-01T03:34:26.868Z,1.6
2018-02-01T03:35:36.848Z,1.6
2018-02-01T03:36:46.827Z,1.58
2018-02-01T03:37:56.811Z,1.57
2018-02-01T03:39:06.794Z,1.6
2018-02-01T03:40:16.773Z,1.74
2018-02-01T03:41:26.491Z,1.66
2018-02-01T03:42:36.475Z,1.7
2018-02-01T03:43:45.930Z,1.74
2018-02-01T03:44:55.916Z,1.56
2018-02-01T03:46:05.898Z,1.53
2018-02-01T03:47:15.885Z,1.63
2018-02-01T03:48:25.862Z,1.57
2018-02-01T03:49:35.950Z,1.5
2018-02-01T03:50:45.937Z,1.48
2018-02-01T03:51:55.923Z,1.45
2018-02-01T03:53:05.377Z,1.53
2018-02-01T03:54:15.098Z,1.57
2018-02-01T03:55:25.122Z,1.57
2018-02-01T03:56:35.105Z,1.52
2018-02-01T03:57:45.092Z,1.53
2018-02-01T03:58:54.805Z,1.61
2018-02-01T04:00:04.258Z,1.57
2018-02-01T04:03:46.292Z,1.6
2018-02-01T04:04:56.009Z,1.53
2018-02-01T04:06:05.725Z,1.57
2018-02-01T04:07:15.437Z,1.58
2018-02-01T04:08:25.160Z,1.57
2018-02-01T04:09:34.619Z,1.58
2018-02-01T04:10:44.078Z,1.64
2018-02-01T04:11:53.791Z,1.6
2018-02-01T04:13:03.505Z,1.68
2018-02-01T04:14:13.488Z,1.67
2018-02-01T04:15:23.320Z,1.61
2018-02-01T04:16:33.308Z,1.71
2018-02-01T04:17:42.760Z,1.67
2018-02-01T04:18:52.743Z,1.68
2018-02-01T04:20:02.467Z,1.71
2018-02-01T04:21:12.185Z,1.71
2018-02-01T04:22:22.165Z,1.7
2018-02-01T04:23:32.147Z,1.74
2018-02-01T04:24:41.860Z,1.75
2018-02-01T04:25:51.575Z,1.78
2018-02-01T04:27:01.566Z,1.78
2018-02-01T04:28:10.754Z,1.74
2018-02-01T04:29:20.476Z,1.78
2018-02-01T04:30:30.193Z,1.76
2018-02-01T04:31:40.179Z,1.84
2018-02-01T04:32:50.211Z,1.84
2018-02-01T04:34:00.192Z,1.82
2018-02-01T04:35:09.912Z,1.84
2018-02-01T04:36:19.894Z,1.85
2018-02-01T04:37:29.610Z,1.85
2018-02-01T04:38:39.327Z,1.84
2018-02-01T04:39:49.314Z,1.79
2018-02-01T04:40:59.301Z,1.81
2018-02-01T04:42:09.281Z,1.84
2018-02-01T04:43:19.005Z,1.79
2018-02-01T04:44:28.515Z,1.84
2018-02-01T04:45:38.273Z,1.84
2018-02-01T04:46:47.991Z,1.84
2018-02-01T04:47:57.708Z,1.93
2018-02-01T04:49:07.437Z,1.86
2018-02-01T04:50:16.625Z,1.84
2018-02-01T04:51:26.606Z,1.88
2018-02-01T04:52:36.590Z,1.85
2018-02-01T04:53:46.574Z,1.88
2018-02-01T04:54:56.033Z,1.88
2018-02-01T04:56:05.749Z,1.86
2018-02-01T04:57:15.464Z,1.86
2018-02-01T04:58:25.182Z,1.92
2018-02-01T04:59:35.163Z,1.86
2018-02-01T05:00:44.882Z,1.95
2018-02-01T05:01:54.872Z,1.88
2018-02-01T05:03:04.323Z,1.89
2018-02-01T05:04:13.778Z,1.93
2018-02-01T05:05:23.232Z,1.89
2018-02-01T05:06:33.251Z,1.88
2018-02-01T05:07:42.970Z,1.95
2018-02-01T05:08:52.952Z,1.88
2018-02-01T05:10:02.933Z,1.88
2018-02-01T05:11:12.919Z,1.88
2018-02-01T05:12:22.903Z,1.92
2018-02-01T05:13:32.619Z,1.93
2018-02-01T05:14:42.393Z,1.88
2018-02-01T05:15:52.105Z,1.86
2018-02-01T05:17:02.091Z,1.86
2018-02-01T05:18:12.076Z,1.88
2018-02-01T05:19:22.059Z,1.93
2018-02-01T05:20:31.784Z,1.97
2018-02-01T05:21:41.233Z,1.89
2018-02-01T05:22:51.236Z,1.93
2018-02-01T05:24:01.223Z,1.95
2018-02-01T05:25:11.213Z,2
2018-02-01T05:26:20.934Z,1.97
2018-02-01T05:27:30.956Z,1.98
2018-02-01T05:28:40.673Z,1.97
2018-02-01T05:29:50.653Z,2.03
2018-02-01T05:31:00.686Z,1.95
2018-02-01T05:32:10.399Z,2
2018-02-01T05:33:20.383Z,2
2018-02-01T05:34:30.099Z,2
2018-02-01T05:35:40.105Z,2
2018-02-01T05:36:50.160Z,1.98
2018-02-01T05:37:59.890Z,2.03
2018-02-01T05:39:09.664Z,2.04
2018-02-01T05:40:19.120Z,2.01
2018-02-01T05:41:28.842Z,2.04
2018-02-01T05:42:38.822Z,2.04
2018-02-01T05:43:48.802Z,2.03
2018-02-01T05:44:58.258Z,1.97
2018-02-01T05:46:07.713Z,1.95
2018-02-01T05:47:17.441Z,1.93
2018-02-01T05:48:26.900Z,2.04
2018-02-01T05:49:36.886Z,2
2018-02-01T05:50:46.338Z,2.01
2018-02-01T05:51:56.055Z,2.03
2018-02-01T05:53:06.040Z,2.04
2018-02-01T05:54:16.024Z,2
2018-02-01T05:55:25.478Z,2.04
2018-02-01T05:56:35.461Z,2.01
2018-02-01T05:57:45.450Z,2.01
2018-02-01T05:58:55.169Z,2
2018-02-01T06:00:04.635Z,2.01
2018-02-01T06:01:14.616Z,2.01
2018-02-01T06:02:24.597Z,1.89
2018-02-01T06:03:34.054Z,1.93
2018-02-01T06:04:44.046Z,1.86
2018-02-01T06:05:54.182Z,1.93
2018-02-01T06:07:03.906Z,1.88
2018-02-01T06:08:13.362Z,2
2018-02-01T06:09:23.347Z,1.88
2018-02-01T06:10:33.074Z,1.97
2018-02-01T06:11:42.263Z,1.95
2018-02-01T06:12:52.243Z,1.88
2018-02-01T06:14:01.976Z,1.89
2018-02-01T06:15:11.436Z,1.86
2018-02-01T06:16:21.155Z,1.85
2018-02-01T06:17:30.874Z,1.95
2018-02-01T06:18:40.860Z,1.93
2018-02-01T06:19:50.835Z,1.86
2018-02-01T06:21:00.817Z,1.84
2018-02-01T06:22:10.272Z,1.84
2018-02-01T06:23:19.991Z,1.81
2018-02-01T06:24:29.975Z,1.79
2018-02-01T06:25:39.432Z,1.86
2018-02-01T06:26:49.164Z,1.81
2018-02-01T06:27:58.942Z,1.84
2018-02-01T06:29:08.412Z,1.75
2018-02-01T06:30:18.406Z,1.78
2018-02-01T06:31:28.390Z,1.76
2018-02-01T06:32:38.404Z,1.76
2018-02-01T06:33:48.122Z,1.78
2018-02-01T06:34:58.105Z,1.75
2018-02-01T06:36:07.827Z,1.75
2018-02-01T06:37:17.544Z,1.7
2018-02-01T06:38:27.271Z,1.74
2018-02-01T06:39:36.996Z,1.7
2018-02-01T06:40:47.094Z,1.71
2018-02-01T06:41:57.073Z,1.78
2018-02-01T06:43:07.118Z,1.75
2018-02-01T06:44:16.842Z,1.71
2018-02-01T06:45:26.844Z,1.71
2018-02-01T06:46:36.852Z,1.75
2018-02-01T06:47:46.577Z,1.78
2018-02-01T06:48:56.295Z,1.81
2018-02-01T06:50:06.013Z,1.85
2018-02-01T06:51:15.727Z,1.81
2018-02-01T06:52:25.490Z,1.81
2018-02-01T06:53:35.217Z,1.81
2018-02-01T06:54:44.957Z,1.84
2018-02-01T06:55:54.676Z,1.92
2018-02-01T06:57:04.396Z,1.79
2018-02-01T06:58:14.379Z,1.82
2018-02-01T06:59:24.367Z,1.79
2018-02-01T07:00:33.823Z,1.89
2018-02-01T07:01:43.542Z,1.88
2018-02-01T07:02:52.997Z,1.86
2018-02-01T07:04:02.981Z,1.85
2018-02-01T07:05:12.701Z,1.85
2018-02-01T07:06:22.422Z,1.97
2018-02-01T07:07:32.445Z,1.92
2018-02-01T07:08:42.169Z,1.86
2018-02-01T07:09:52.207Z,1.84
2018-02-01T07:11:02.195Z,1.81
2018-02-01T07:12:11.392Z,1.81
2018-02-01T07:13:21.116Z,1.85
2018-02-01T07:14:31.106Z,1.88
2018-02-01T07:15:40.875Z,1.81
2018-02-01T07:16:50.598Z,1.89
2018-02-01T07:18:00.321Z,1.93
2018-02-01T07:19:10.041Z,1.78
2018-02-01T07:20:20.028Z,1.85
2018-02-01T07:21:29.750Z,1.84
2018-02-01T07:22:39.208Z,1.81
2018-02-01T07:23:48.930Z,1.92
2018-02-01T07:24:58.976Z,1.82
2018-02-01T07:26:08.962Z,1.85
2018-02-01T07:27:19.003Z,1.85
2018-02-01T07:28:28.465Z,1.75
2018-02-01T07:29:38.231Z,1.84
2018-02-01T07:30:47.954Z,1.75
2018-02-01T07:31:57.720Z,1.84
2018-02-01T07:33:07.806Z,1.76
2018-02-01T07:34:17.790Z,1.79
2018-02-01T07:35:27.776Z,1.84
2018-02-01T07:36:37.760Z,1.85
2018-02-01T07:37:47.746Z,1.84
2018-02-01T07:38:57.464Z,1.79
2018-02-01T07:40:07.192Z,1.81
2018-02-01T07:41:16.908Z,1.74
2018-02-01T07:42:26.633Z,1.75
2018-02-01T07:43:36.349Z,1.76
2018-02-01T07:44:46.375Z,1.81
2018-02-01T07:45:56.353Z,1.78
2018-02-01T07:47:06.341Z,1.81
2018-02-01T07:48:15.807Z,1.78
2018-02-01T07:49:25.261Z,1.81
2018-02-01T07:50:34.818Z,1.76
2018-02-01T07:51:44.290Z,1.81
2018-02-01T07:52:53.992Z,1.89
2018-02-01T07:54:03.988Z,1.76
2018-02-01T07:55:13.716Z,1.75
2018-02-01T07:56:23.442Z,1.84
2018-02-01T07:57:32.896Z,1.85
2018-02-01T07:58:42.886Z,1.76
2018-02-01T07:59:52.870Z,1.85
2018-02-01T08:01:02.852Z,1.85
2018-02-01T08:02:12.569Z,1.75
2018-02-01T08:03:22.557Z,1.76
2018-02-01T08:04:32.012Z,1.79
2018-02-01T08:05:41.799Z,1.81
2018-02-01T08:06:51.795Z,1.85
2018-02-01T08:08:01.782Z,1.82
2018-02-01T08:09:11.244Z,1.76
2018-02-01T08:10:21.231Z,1.84
2018-02-01T08:11:30.949Z,1.84
2018-02-01T08:12:40.408Z,1.75
2018-02-01T08:13:49.912Z,1.84
2018-02-01T08:14:59.899Z,1.81
2018-02-01T08:16:09.619Z,1.82
2018-02-01T08:17:19.078Z,1.93
2018-02-01T08:18:29.064Z,1.81
2018-02-01T08:19:39.066Z,1.88
2018-02-01T08:20:48.788Z,1.89
2018-02-01T08:21:58.770Z,1.88
2018-02-01T08:23:08.493Z,1.86
2018-02-01T08:24:18.485Z,1.89
2018-02-01T08:25:28.202Z,1.88
2018-02-01T08:26:38.217Z,1.81
2018-02-01T08:27:47.416Z,1.85
2018-02-01T08:28:57.142Z,1.81
2018-02-01T08:30:06.861Z,1.82
2018-02-01T08:31:16.950Z,1.84
2018-02-01T08:32:26.936Z,1.76
2018-02-01T08:33:36.924Z,1.75
2018-02-01T08:34:46.642Z,1.71
2018-02-01T08:35:56.361Z,1.79
2018-02-01T08:37:06.354Z,1.79
2018-02-01T08:38:16.072Z,1.85
2018-02-01T08:39:25.789Z,1.81
2018-02-01T08:40:35.505Z,1.86
2018-02-01T08:41:45.225Z,1.84
2018-02-01T08:42:55.082Z,1.86
2018-02-01T08:44:05.066Z,1.88
2018-02-01T08:45:15.053Z,1.92
2018-02-01T08:46:25.044Z,1.89
2018-02-01T08:47:35.029Z,1.88
2018-02-01T08:48:45.014Z,1.88
2018-02-01T08:49:55.004Z,1.82
2018-02-01T08:51:05.085Z,1.85
2018-02-01T08:52:15.073Z,1.84
2018-02-01T08:53:24.532Z,1.89
2018-02-01T08:54:34.515Z,1.89
2018-02-01T08:55:44.514Z,1.89
2018-02-01T08:56:54.236Z,1.88
2018-02-01T08:58:03.690Z,2.01
2018-02-01T08:59:13.673Z,2
2018-02-01T09:00:23.148Z,1.97
2018-02-01T09:01:33.190Z,2.04
2018-02-01T09:02:42.912Z,1.95
2018-02-01T09:03:52.372Z,2.07
2018-02-01T09:05:02.092Z,2
2018-02-01T09:06:12.119Z,1.95
2018-02-01T09:07:21.320Z,2.03
2018-02-01T09:08:31.037Z,2.04
2018-02-01T09:09:40.761Z,2
2018-02-01T09:10:50.485Z,2
2018-02-01T09:12:00.255Z,1.92
2018-02-01T09:13:10.245Z,1.93
2018-02-01T09:14:20.233Z,1.95
2018-02-01T09:15:29.958Z,1.85
2018-02-01T09:16:39.946Z,1.92
2018-02-01T09:17:49.668Z,2
2018-02-01T09:18:59.123Z,1.88
2018-02-01T09:20:08.853Z,1.93
2018-02-01T09:21:17.517Z,1.89
2018-02-01T09:22:26.975Z,1.89
2018-02-01T09:23:36.698Z,1.92
2018-02-01T09:24:46.202Z,1.95
2018-02-01T09:25:56.241Z,2
2018-02-01T09:27:06.226Z,1.93
2018-02-01T09:28:15.956Z,2.1
2018-02-01T09:29:25.948Z,2.04
2018-02-01T09:30:35.668Z,2.03
2018-02-01T09:31:45.656Z,2.07
2018-02-01T09:32:55.377Z,2.14
2018-02-01T09:34:05.363Z,2.12
2018-02-01T09:35:15.320Z,2.15
2018-02-01T09:36:25.311Z,2.19
2018-02-01T09:37:35.298Z,2.15
2018-02-01T09:38:45.019Z,2.15
2018-02-01T09:39:54.751Z,2.23
2018-02-01T09:41:04.486Z,2.22
2018-02-01T09:42:14.475Z,2.15
2018-02-01T09:43:24.463Z,2.18
2018-02-01T09:44:34.440Z,2.15
2018-02-01T09:45:44.160Z,2.19
2018-02-01T09:46:53.879Z,2.28
2018-02-01T09:48:03.882Z,2.19
2018-02-01T09:49:13.606Z,2.18
2018-02-01T09:50:23.597Z,2.22
2018-02-01T09:51:33.586Z,2.34
2018-02-01T09:52:43.735Z,2.23
2018-02-01T09:53:53.729Z,2.32
2018-02-01T09:55:03.726Z,2.33
2018-02-01T09:56:13.448Z,2.34
2018-02-01T09:57:22.910Z,2.33
2018-02-01T09:58:32.727Z,2.4
2018-02-01T09:59:42.446Z,2.39
2018-02-01T10:00:52.426Z,2.41
2018-02-01T10:02:02.420Z,2.47
2018-02-01T10:03:12.406Z,2.52
2018-02-01T10:04:22.388Z,2.58
2018-02-01T10:05:32.174Z,2.61
2018-02-01T10:06:41.907Z,2.59
2018-02-01T10:07:51.896Z,2.59
2018-02-01T10:09:01.875Z,2.65
2018-02-01T10:10:11.911Z,2.72
2018-02-01T10:11:21.899Z,2.73
2018-02-01T10:12:31.893Z,2.72
2018-02-01T10:13:41.411Z,2.75
2018-02-01T10:14:51.399Z,2.85
2018-02-01T10:16:01.444Z,2.88
2018-02-01T10:17:11.164Z,2.93
2018-02-01T10:18:20.353Z,2.9
2018-02-01T10:19:30.161Z,2.88
2018-02-01T10:20:39.880Z,2.93
2018-02-01T10:21:49.608Z,2.91
2018-02-01T10:22:59.371Z,2.94
2018-02-01T10:24:09.371Z,2.93
2018-02-01T10:25:19.415Z,2.9
2018-02-01T10:26:29.134Z,3.01
2018-02-01T10:27:38.863Z,2.91
2018-02-01T10:28:48.854Z,2.97
2018-02-01T10:29:58.576Z,2.93
2018-02-01T10:31:08.036Z,3.01
2018-02-01T10:32:17.807Z,3
2018-02-01T10:33:27.535Z,2.97
2018-02-01T10:34:37.257Z,2.95
2018-02-01T10:35:46.992Z,3.05
2018-02-01T10:36:57.093Z,2.98
2018-02-01T10:38:06.557Z,2.9
2018-02-01T10:39:19.124Z,2.98
2018-02-01T10:40:28.576Z,3.06
2018-02-01T10:41:38.569Z,2.98
2018-02-01T10:42:48.026Z,3.09
2018-02-01T10:43:57.300Z,3.09
2018-02-01T10:45:07.024Z,2.95
2018-02-01T10:46:17.011Z,2.97
2018-02-01T10:47:27.004Z,2.94
2018-02-01T10:48:37.024Z,2.93
2018-02-01T10:49:46.803Z,2.94
2018-02-01T10:50:57.287Z,2.9
2018-02-01T10:52:07.011Z,2.95
2018-02-01T10:53:16.999Z,2.87
2018-02-01T10:54:26.727Z,2.87
2018-02-01T10:55:36.710Z,2.87
2018-02-01T10:56:46.697Z,2.88
2018-02-01T10:57:56.150Z,3
2018-02-01T10:59:05.338Z,2.97
2018-02-01T11:00:15.579Z,2.98
2018-02-01T11:01:25.591Z,3
2018-02-01T11:02:35.316Z,2.98
2018-02-01T11:03:45.043Z,3
2018-02-01T11:04:54.767Z,3.05
2018-02-01T11:06:04.487Z,3.03
2018-02-01T11:07:14.218Z,3.08
2018-02-01T11:08:24.208Z,3.09
2018-02-01T11:09:33.662Z,3.13
2018-02-01T11:10:43.120Z,3.12
2018-02-01T11:11:52.853Z,3.05
2018-02-01T11:13:02.572Z,3
2018-02-01T11:14:12.344Z,3.09
2018-02-01T11:15:22.328Z,3.11
2018-02-01T11:16:32.056Z,3.03
2018-02-01T11:17:41.786Z,2.98
2018-02-01T11:18:51.773Z,3.05
2018-02-01T11:20:01.494Z,3.06
2018-02-01T11:21:11.214Z,3.01
2018-02-01T11:22:20.937Z,3.03
2018-02-01T11:23:30.920Z,2.98
2018-02-01T11:24:40.638Z,2.95
2018-02-01T11:25:50.469Z,2.98
2018-02-01T11:27:00.192Z,2.98
2018-02-01T11:28:09.917Z,3.06
2018-02-01T11:29:19.902Z,2.95
2018-02-01T11:30:29.624Z,2.87
2018-02-01T11:31:38.821Z,2.77
2018-02-01T11:32:48.877Z,2.87
2018-02-01T11:33:58.338Z,2.9
2018-02-01T11:35:07.860Z,2.91
2018-02-01T11:36:17.580Z,2.97
2018-02-01T11:37:27.562Z,2.95
2018-02-01T11:38:37.290Z,2.93
2018-02-01T11:39:47.019Z,2.91
2018-02-01T11:40:57.012Z,2.91
2018-02-01T11:42:07.001Z,2.9
2018-02-01T11:43:16.721Z,3
2018-02-01T11:44:26.440Z,2.95
2018-02-01T11:45:36.486Z,2.97
2018-02-01T11:46:45.951Z,2.97
2018-02-01T11:47:55.986Z,2.98
2018-02-01T11:49:05.716Z,3
2018-02-01T11:50:15.706Z,2.98
2018-02-01T11:51:24.895Z,3.08
2018-02-01T11:52:34.619Z,3.08
2018-02-01T11:53:44.606Z,3.15
2018-02-01T11:54:54.594Z,3.15
2018-02-01T11:56:04.069Z,3.27
2018-02-01T11:57:13.784Z,3.27
2018-02-01T11:58:23.770Z,3.24
2018-02-01T11:59:33.488Z,3.24
2018-02-01T12:00:42.943Z,3.34
2018-02-01T12:01:52.935Z,3.36
2018-02-01T12:03:02.973Z,3.49
2018-02-01T12:04:12.427Z,3.53
2018-02-01T12:05:22.420Z,3.58
2018-02-01T12:06:32.458Z,3.59
2018-02-01T12:07:42.445Z,3.49
2018-02-01T12:08:52.512Z,3.55
2018-02-01T12:10:02.230Z,3.49
2018-02-01T12:11:12.219Z,3.59
2018-02-01T12:12:21.944Z,3.58
2018-02-01T12:13:31.945Z,3.58
2018-02-01T12:14:41.409Z,3.58
2018-02-01T12:15:51.410Z,3.66
2018-02-01T12:17:01.408Z,3.52
2018-02-01T12:18:11.132Z,3.5
2018-02-01T12:19:20.852Z,3.56
2018-02-01T12:20:30.844Z,3.59
2018-02-01T12:21:40.833Z,3.56
2018-02-01T12:22:50.553Z,3.5
2018-02-01T12:24:00.374Z,3.46
2018-02-01T12:25:10.101Z,3.53
2018-02-01T12:26:19.825Z,3.53
2018-02-01T12:27:29.813Z,3.56
2018-02-01T12:28:39.265Z,3.53
2018-02-01T12:29:48.723Z,3.56
2018-02-01T12:30:58.451Z,3.58
2018-02-01T12:32:08.178Z,3.49
2018-02-01T12:33:18.165Z,3.37
2018-02-01T12:34:28.156Z,3.31
2018-02-01T12:35:38.306Z,3.33
2018-02-01T12:36:48.377Z,3.34
2018-02-01T12:37:58.366Z,3.36
2018-02-01T12:39:08.091Z,3.36
2018-02-01T12:40:18.213Z,3.34
2018-02-01T12:41:27.968Z,3.4
2018-02-01T12:42:37.948Z,3.33
2018-02-01T12:43:47.414Z,3.33
2018-02-01T12:44:57.181Z,3.34
2018-02-01T12:46:06.656Z,3.33
2018-02-01T12:47:16.643Z,3.43
2018-02-01T12:48:26.628Z,3.37
2018-02-01T12:49:36.610Z,3.45
2018-02-01T12:50:46.153Z,3.36
2018-02-01T12:51:56.219Z,3.4
2018-02-01T12:53:06.268Z,3.34
2018-02-01T12:54:16.030Z,3.45
2018-02-01T12:55:26.023Z,3.45
2018-02-01T12:56:36.011Z,3.45
2018-02-01T12:57:45.730Z,3.5
2018-02-01T12:58:55.246Z,3.53
2018-02-01T13:00:04.972Z,3.46
2018-02-01T13:01:14.700Z,3.49
2018-02-01T13:02:24.425Z,3.48
2018-02-01T13:03:34.193Z,3.49
2018-02-01T13:04:43.942Z,3.58
2018-02-01T13:05:53.397Z,3.5
2018-02-01T13:07:03.123Z,3.56
2018-02-01T13:08:12.842Z,3.58
2018-02-01T13:09:22.859Z,3.66
2018-02-01T13:10:32.583Z,3.63
2018-02-01T13:11:42.573Z,3.66
2018-02-01T13:12:52.035Z,3.58
2018-02-01T13:14:02.018Z,3.66
2018-02-01T13:15:11.735Z,3.68
2018-02-01T13:16:21.732Z,3.55
2018-02-01T13:17:31.752Z,3.63
2018-02-01T13:18:41.290Z,3.68
2018-02-01T13:19:51.279Z,3.63
2018-02-01T13:21:00.729Z,3.59
2018-02-01T13:22:10.446Z,3.56
2018-02-01T13:23:20.433Z,3.66
2018-02-01T13:24:30.425Z,3.63
2018-02-01T13:25:40.156Z,3.61
2018-02-01T13:26:49.875Z,3.5
2018-02-01T13:27:59.594Z,3.53
2018-02-01T13:29:09.581Z,3.5
2018-02-01T13:30:19.572Z,3.5
2018-02-01T13:31:29.296Z,3.58
2018-02-01T13:32:39.278Z,3.46
2018-02-01T13:33:49.266Z,3.58
2018-02-01T13:34:58.993Z,3.63
2018-02-01T13:36:08.726Z,3.68
2018-02-01T13:37:18.447Z,3.68
2018-02-01T13:38:28.172Z,3.73
2018-02-01T13:39:37.996Z,3.7
2018-02-01T13:40:47.730Z,3.77
2018-02-01T13:41:57.759Z,3.76
2018-02-01T13:43:07.216Z,3.82
2018-02-01T13:44:17.202Z,3.81
2018-02-01T13:45:27.901Z,3.77
2018-02-01T13:46:37.887Z,3.81
2018-02-01T13:47:47.869Z,3.92
2018-02-01T13:48:57.858Z,3.96
2018-02-01T13:50:07.845Z,3.94
2018-02-01T13:51:17.829Z,3.89
2018-02-01T13:52:27.813Z,3.88
2018-02-01T13:53:37.535Z,3.94
2018-02-01T13:54:47.262Z,3.89
2018-02-01T13:55:57.248Z,3.88
2018-02-01T13:57:07.238Z,3.91
2018-02-01T13:58:16.963Z,3.91
2018-02-01T13:59:27.001Z,3.91
2018-02-01T14:00:36.983Z,3.89
2018-02-01T14:01:46.709Z,3.91
2018-02-01T14:02:56.221Z,3.91
2018-02-01T14:04:05.940Z,3.89
2018-02-01T14:05:15.397Z,3.94
2018-02-01T14:06:25.122Z,3.88
2018-02-01T14:07:34.575Z,3.94
2018-02-01T14:08:44.306Z,3.94
2018-02-01T14:09:54.033Z,3.78
2018-02-01T14:11:04.020Z,3.77
2018-02-01T14:12:13.477Z,3.81
2018-02-01T14:13:23.462Z,3.81
2018-02-01T14:14:33.184Z,3.82
2018-02-01T14:15:42.375Z,3.82
2018-02-01T14:16:52.366Z,3.73
2018-02-01T14:18:02.355Z,3.78
2018-02-01T14:19:11.817Z,3.7
2018-02-01T14:20:21.543Z,3.67
2018-02-01T14:21:31.529Z,3.58
2018-02-01T14:22:41.252Z,3.59
2018-02-01T14:23:50.981Z,3.53
2018-02-01T14:25:00.961Z,3.68
2018-02-01T14:26:10.961Z,3.64
2018-02-01T14:27:20.422Z,3.63
2018-02-01T14:28:30.412Z,3.66
2018-02-01T14:29:39.866Z,3.56
2018-02-01T14:30:49.854Z,3.58
2018-02-01T14:31:59.846Z,3.59
2018-02-01T14:33:09.568Z,3.53
2018-02-01T14:34:19.288Z,3.48
2018-02-01T14:35:29.007Z,3.46
2018-02-01T14:36:38.734Z,3.46
2018-02-01T14:37:48.198Z,3.18
2018-02-01T14:38:58.184Z,3.21
2018-02-01T14:40:07.668Z,3.12
2018-02-01T14:41:17.752Z,3.08
2018-02-01T14:42:27.748Z,3.05
2018-02-01T14:43:37.580Z,3.08
2018-02-01T14:44:47.564Z,3.01
2018-02-01T14:45:57.282Z,2.95
2018-02-01T14:47:07.005Z,2.98
2018-02-01T14:48:16.724Z,3
2018-02-01T14:49:26.447Z,2.95
2018-02-01T14:50:36.479Z,2.95
2018-02-01T14:51:46.198Z,3.05
2018-02-01T14:52:56.190Z,2.98
2018-02-01T14:54:06.179Z,3
2018-02-01T14:55:16.178Z,2.97
2018-02-01T14:56:25.902Z,2.95
2018-02-01T14:57:35.887Z,2.98
2018-02-01T14:58:45.345Z,2.94
2018-02-01T14:59:55.343Z,2.91
2018-02-01T15:01:04.821Z,3
2018-02-01T15:02:14.814Z,3
2018-02-01T15:03:24.799Z,3.03
2018-02-01T15:04:34.579Z,2.98
2018-02-01T15:05:44.292Z,2.87
2018-02-01T15:06:55.179Z,2.93
2018-02-01T15:08:05.161Z,2.88
2018-02-01T15:09:15.148Z,2.87
2018-02-01T15:10:24.875Z,2.8
2018-02-01T15:11:34.604Z,2.88
2018-02-01T15:12:43.800Z,2.9
2018-02-01T15:13:53.788Z,2.83
2018-02-01T15:15:03.517Z,2.83
2018-02-01T15:16:13.505Z,2.91
2018-02-01T15:17:23.487Z,2.72
2018-02-01T15:18:33.352Z,2.76
2018-02-01T15:19:42.822Z,2.79
2018-02-01T15:20:52.812Z,2.62
2018-02-01T15:22:02.793Z,2.72
2018-02-01T15:23:12.512Z,2.61
2018-02-01T15:24:22.227Z,2.58
2018-02-01T15:25:32.210Z,2.61
2018-02-01T15:26:41.927Z,2.52
2018-02-01T15:27:51.970Z,2.46
2018-02-01T15:29:01.949Z,2.41
2018-02-01T15:30:11.935Z,2.4
2018-02-01T15:31:21.714Z,2.4
2018-02-01T15:32:31.700Z,2.3
2018-02-01T15:33:41.680Z,2.23
2018-02-01T15:34:51.404Z,2.16
2018-02-01T15:36:01.120Z,2.14
2018-02-01T15:37:11.107Z,2.03